sensor_id;sensor_type;location;lat;lon;timestamp;pressure;altitude;pressure_sealevel;temperature;humidity
63808;BME280;49961;43.970;22.868;2023-02-16T00:00:18;102869.13;;;4.48;100.00
63808;BME280;49961;43.970;22.868;2023-02-16T00:01:25;102874.31;;;4.41;100.00
63808;BME280;49961;43.970;22.868;2023-02-16T00:02:25;102882.56;;;4.41;100.00
63808;BME280;49961;43.970;22.868;2023-02-16T00:03:26;102881.25;;;4.27;100.00
63808;BME280;49961;43.970;22.868;2023-02-16T00:04:28;102883.72;;;4.20;100.00
63808;BME280;49961;43.970;22.868;2023-02-16T00:05:32;102844.41;;;3.87;100.00
63808;BME280;49961;43.970;22.868;2023-02-16T00:06:33;102881.00;;;4.20;100.00
63808;BME280;49961;43.970;22.868;2023-02-16T00:07:34;102878.81;;;4.25;100.00
63808;BME280;49961;43.970;22.868;2023-02-16T00:08:34;102879.34;;;4.19;100.00
63808;BME280;49961;43.970;22.868;2023-02-16T00:09:35;102887.00;;;4.13;100.00
63808;BME280;49961;43.970;22.868;2023-02-16T00:10:37;102765.13;;;3.32;100.00
63808;BME280;49961;43.970;22.868;2023-02-16T00:11:38;102887.59;;;4.19;100.00
63808;BME280;49961;43.970;22.868;2023-02-16T00:12:57;102897.91;;;4.22;100.00
63808;BME280;49961;43.970;22.868;2023-02-16T00:14:17;102884.84;;;4.19;100.00
63808;BME280;49961;43.970;22.868;2023-02-16T00:15:19;102879.03;;;4.20;100.00
63808;BME280;49961;43.970;22.868;2023-02-16T00:16:22;102753.63;;;3.39;100.00
63808;BME280;49961;43.970;22.868;2023-02-16T00:17:22;102880.56;;;4.09;100.00
63808;BME280;49961;43.970;22.868;2023-02-16T00:18:22;102883.50;;;4.04;100.00
63808;BME280;49961;43.970;22.868;2023-02-16T00:20:28;102883.19;;;4.06;100.00
63808;BME280;49961;43.970;22.868;2023-02-16T00:21:32;102870.44;;;4.01;100.00
63808;BME280;49961;43.970;22.868;2023-02-16T00:22:32;102876.75;;;4.02;100.00
63808;BME280;49961;43.970;22.868;2023-02-16T00:23:32;102879.31;;;4.07;100.00
63808;BME280;49961;43.970;22.868;2023-02-16T00:24:33;102884.31;;;4.05;100.00
63808;BME280;49961;43.970;22.868;2023-02-16T00:25:35;102878.84;;;4.05;100.00
63808;BME280;49961;43.970;22.868;2023-02-16T00:26:35;102879.81;;;4.00;100.00
63808;BME280;49961;43.970;22.868;2023-02-16T00:27:36;102879.31;;;4.07;100.00
63808;BME280;49961;43.970;22.868;2023-02-16T00:28:37;102881.72;;;4.08;100.00
63808;BME280;49961;43.970;22.868;2023-02-16T00:29:37;102778.50;;;3.54;100.00
63808;BME280;49961;43.970;22.868;2023-02-16T00:30:38;102877.09;;;4.21;100.00
63808;BME280;49961;43.970;22.868;2023-02-16T00:31:38;102861.28;;;4.18;100.00
63808;BME280;49961;43.970;22.868;2023-02-16T00:32:39;102714.91;;;3.20;100.00
63808;BME280;49961;43.970;22.868;2023-02-16T00:33:39;102876.69;;;4.31;100.00
63808;BME280;49961;43.970;22.868;2023-02-16T00:34:40;102879.25;;;4.36;100.00
63808;BME280;49961;43.970;22.868;2023-02-16T00:35:41;102885.63;;;4.40;100.00
63808;BME280;49961;43.970;22.868;2023-02-16T00:36:41;102877.41;;;4.40;100.00
63808;BME280;49961;43.970;22.868;2023-02-16T00:37:42;102877.88;;;4.42;100.00
63808;BME280;49961;43.970;22.868;2023-02-16T00:38:42;102878.81;;;4.46;100.00
63808;BME280;49961;43.970;22.868;2023-02-16T00:39:43;102883.63;;;4.49;100.00
63808;BME280;49961;43.970;22.868;2023-02-16T00:40:44;102881.38;;;4.51;100.00
63808;BME280;49961;43.970;22.868;2023-02-16T00:41:45;102799.59;;;4.03;100.00
63808;BME280;49961;43.970;22.868;2023-02-16T00:42:52;102871.97;;;4.52;100.00
63808;BME280;49961;43.970;22.868;2023-02-16T00:43:53;102877.25;;;4.57;100.00
63808;BME280;49961;43.970;22.868;2023-02-16T00:44:55;102877.72;;;4.59;100.00
63808;BME280;49961;43.970;22.868;2023-02-16T00:45:56;102878.19;;;4.61;100.00
63808;BME280;49961;43.970;22.868;2023-02-16T00:47:00;102878.31;;;4.64;100.00
63808;BME280;49961;43.970;22.868;2023-02-16T00:48:01;102883.13;;;4.67;100.00
63808;BME280;49961;43.970;22.868;2023-02-16T00:49:02;102876.16;;;4.70;100.00
63808;BME280;49961;43.970;22.868;2023-02-16T00:50:14;102877.31;;;4.69;100.00
63808;BME280;49961;43.970;22.868;2023-02-16T00:51:17;102880.50;;;4.71;100.00
63808;BME280;49961;43.970;22.868;2023-02-16T00:53:30;102880.97;;;4.73;100.00
63808;BME280;49961;43.970;22.868;2023-02-16T00:54:30;102860.78;;;4.57;100.00
63808;BME280;49961;43.970;22.868;2023-02-16T00:55:33;102877.50;;;4.64;100.00
63808;BME280;49961;43.970;22.868;2023-02-16T00:56:34;102874.75;;;4.64;100.00
63808;BME280;49961;43.970;22.868;2023-02-16T00:57:40;102734.66;;;3.75;100.00
63808;BME280;49961;43.970;22.868;2023-02-16T00:58:41;102869.34;;;4.55;100.00
63808;BME280;49961;43.970;22.868;2023-02-16T00:59:42;102878.06;;;4.57;100.00
63808;BME280;49961;43.970;22.868;2023-02-16T01:00:48;102866.81;;;4.50;100.00
63808;BME280;49961;43.970;22.868;2023-02-16T01:01:50;102640.31;;;3.14;100.00
63808;BME280;49961;43.970;22.868;2023-02-16T01:02:52;102881.41;;;4.63;100.00
63808;BME280;49961;43.970;22.868;2023-02-16T01:03:54;102877.50;;;4.64;100.00
63808;BME280;49961;43.970;22.868;2023-02-16T01:04:54;102876.00;;;4.54;100.00
63808;BME280;49961;43.970;22.868;2023-02-16T01:05:55;102877.59;;;4.55;100.00
63808;BME280;49961;43.970;22.868;2023-02-16T01:07:15;102871.28;;;4.55;100.00
63808;BME280;49961;43.970;22.868;2023-02-16T01:08:36;102878.63;;;4.51;100.00
63808;BME280;49961;43.970;22.868;2023-02-16T01:09:55;102877.34;;;4.48;100.00
63808;BME280;49961;43.970;22.868;2023-02-16T01:11:14;102872.66;;;4.49;100.00
63808;BME280;49961;43.970;22.868;2023-02-16T01:12:17;102892.34;;;4.51;100.00
63808;BME280;49961;43.970;22.868;2023-02-16T01:13:18;102870.03;;;4.52;100.00
63808;BME280;49961;43.970;22.868;2023-02-16T01:14:19;102869.69;;;4.54;100.00
63808;BME280;49961;43.970;22.868;2023-02-16T01:15:21;102871.66;;;4.53;100.00
63808;BME280;49961;43.970;22.868;2023-02-16T01:16:57;102870.16;;;4.56;100.00
63808;BME280;49961;43.970;22.868;2023-02-16T01:17:50;102873.50;;;4.61;100.00
63808;BME280;49961;43.970;22.868;2023-02-16T01:18:52;102875.56;;;4.64;100.00
63808;BME280;49961;43.970;22.868;2023-02-16T01:19:53;102866.72;;;4.59;100.00
63808;BME280;49961;43.970;22.868;2023-02-16T01:20:53;102870.53;;;4.66;100.00
63808;BME280;49961;43.970;22.868;2023-02-16T01:21:53;102861.03;;;4.64;100.00
63808;BME280;49961;43.970;22.868;2023-02-16T01:22:54;102863.69;;;4.72;100.00
63808;BME280;49961;43.970;22.868;2023-02-16T01:23:55;102865.16;;;4.70;100.00
63808;BME280;49961;43.970;22.868;2023-02-16T01:24:55;102864.84;;;4.71;100.00
63808;BME280;49961;43.970;22.868;2023-02-16T01:25:55;102849.47;;;4.58;100.00
63808;BME280;49961;43.970;22.868;2023-02-16T01:26:56;102840.75;;;4.56;100.00
63808;BME280;49961;43.970;22.868;2023-02-16T01:27:56;102860.69;;;4.65;100.00
63808;BME280;49961;43.970;22.868;2023-02-16T01:28:57;102859.88;;;4.65;100.00
63808;BME280;49961;43.970;22.868;2023-02-16T01:29:57;102864.59;;;4.64;100.00
63808;BME280;49961;43.970;22.868;2023-02-16T01:30:58;102859.44;;;4.63;100.00
63808;BME280;49961;43.970;22.868;2023-02-16T01:31:58;102722.09;;;3.74;100.00
63808;BME280;49961;43.970;22.868;2023-02-16T01:32:58;102861.97;;;4.68;100.00
63808;BME280;49961;43.970;22.868;2023-02-16T01:33:59;102692.78;;;3.66;100.00
63808;BME280;49961;43.970;22.868;2023-02-16T01:34:59;102864.50;;;4.73;100.00
63808;BME280;49961;43.970;22.868;2023-02-16T01:36:00;102853.94;;;4.63;100.00
63808;BME280;49961;43.970;22.868;2023-02-16T01:37:00;102862.41;;;4.70;100.00
63808;BME280;49961;43.970;22.868;2023-02-16T01:38:00;102865.97;;;4.70;100.00
63808;BME280;49961;43.970;22.868;2023-02-16T01:39:01;102800.94;;;4.30;100.00
63808;BME280;49961;43.970;22.868;2023-02-16T01:40:02;102863.56;;;4.69;100.00
63808;BME280;49961;43.970;22.868;2023-02-16T01:41:05;102861.28;;;4.71;100.00
63808;BME280;49961;43.970;22.868;2023-02-16T01:42:27;102859.66;;;4.70;100.00
63808;BME280;49961;43.970;22.868;2023-02-16T01:43:48;102858.16;;;4.60;100.00
63808;BME280;49961;43.970;22.868;2023-02-16T01:45:04;102857.84;;;4.62;100.00
63808;BME280;49961;43.970;22.868;2023-02-16T01:46:13;102862.84;;;4.60;100.00
63808;BME280;49961;43.970;22.868;2023-02-16T01:48:24;102863.53;;;4.57;100.00
63808;BME280;49961;43.970;22.868;2023-02-16T01:49:25;102861.72;;;4.61;100.00
63808;BME280;49961;43.970;22.868;2023-02-16T01:50:32;102862.50;;;4.61;100.00
63808;BME280;49961;43.970;22.868;2023-02-16T01:53:25;102852.28;;;4.50;100.00
63808;BME280;49961;43.970;22.868;2023-02-16T01:54:30;102858.72;;;4.54;100.00
63808;BME280;49961;43.970;22.868;2023-02-16T01:55:36;102862.25;;;4.54;100.00
63808;BME280;49961;43.970;22.868;2023-02-16T01:57:02;102802.06;;;4.17;100.00
63808;BME280;49961;43.970;22.868;2023-02-16T01:58:15;102864.81;;;4.59;100.00
63808;BME280;49961;43.970;22.868;2023-02-16T01:59:35;102867.06;;;4.57;100.00
63808;BME280;49961;43.970;22.868;2023-02-16T02:02:58;102847.69;;;4.42;100.00
63808;BME280;49961;43.970;22.868;2023-02-16T02:04:36;102868.34;;;4.60;100.00
63808;BME280;49961;43.970;22.868;2023-02-16T02:05:57;102858.03;;;4.57;100.00
63808;BME280;49961;43.970;22.868;2023-02-16T02:06:57;102860.50;;;4.50;100.00
63808;BME280;49961;43.970;22.868;2023-02-16T02:08:19;102866.63;;;4.55;100.00
63808;BME280;49961;43.970;22.868;2023-02-16T02:09:58;102855.28;;;4.57;100.00
63808;BME280;49961;43.970;22.868;2023-02-16T02:11:13;102867.28;;;4.52;100.00
63808;BME280;49961;43.970;22.868;2023-02-16T02:14:31;102800.38;;;4.04;100.00
63808;BME280;49961;43.970;22.868;2023-02-16T02:15:33;102857.44;;;4.51;100.00
63808;BME280;49961;43.970;22.868;2023-02-16T02:16:34;102772.91;;;3.92;100.00
63808;BME280;49961;43.970;22.868;2023-02-16T02:17:34;102707.44;;;3.49;100.00
63808;BME280;49961;43.970;22.868;2023-02-16T02:18:36;102867.84;;;4.46;100.00
63808;BME280;49961;43.970;22.868;2023-02-16T02:19:46;102859.59;;;4.46;100.00
63808;BME280;49961;43.970;22.868;2023-02-16T02:22:51;102855.09;;;4.41;100.00
63808;BME280;49961;43.970;22.868;2023-02-16T02:27:23;102845.97;;;4.17;100.00
63808;BME280;49961;43.970;22.868;2023-02-16T02:28:36;102856.63;;;4.18;100.00
63808;BME280;49961;43.970;22.868;2023-02-16T02:30:48;102855.00;;;4.17;100.00
63808;BME280;49961;43.970;22.868;2023-02-16T02:36:02;102855.34;;;4.16;100.00
63808;BME280;49961;43.970;22.868;2023-02-16T02:37:16;102852.47;;;4.12;100.00
63808;BME280;49961;43.970;22.868;2023-02-16T02:40:17;102846.81;;;4.09;100.00
63808;BME280;49961;43.970;22.868;2023-02-16T02:43:20;102848.50;;;4.01;100.00
63808;BME280;49961;43.970;22.868;2023-02-16T02:44:23;102842.09;;;3.97;100.00
63808;BME280;49961;43.970;22.868;2023-02-16T02:45:31;102845.16;;;3.96;100.00
63808;BME280;49961;43.970;22.868;2023-02-16T02:46:33;102837.78;;;3.88;100.00
63808;BME280;49961;43.970;22.868;2023-02-16T02:47:41;102852.91;;;3.94;100.00
63808;BME280;49961;43.970;22.868;2023-02-16T02:48:42;102844.03;;;3.97;100.00
63808;BME280;49961;43.970;22.868;2023-02-16T02:49:53;102850.66;;;3.96;100.00
63808;BME280;49961;43.970;22.868;2023-02-16T02:51:02;102841.69;;;3.87;100.00
63808;BME280;49961;43.970;22.868;2023-02-16T02:52:22;102851.50;;;3.88;100.00
63808;BME280;49961;43.970;22.868;2023-02-16T02:53:22;102846.72;;;3.85;100.00
63808;BME280;49961;43.970;22.868;2023-02-16T02:54:27;102854.44;;;3.83;100.00
63808;BME280;49961;43.970;22.868;2023-02-16T02:55:48;102723.69;;;3.05;100.00
63808;BME280;49961;43.970;22.868;2023-02-16T02:57:36;102852.72;;;3.78;100.00
63808;BME280;49961;43.970;22.868;2023-02-16T02:59:03;102826.72;;;3.55;100.00
63808;BME280;49961;43.970;22.868;2023-02-16T03:00:27;102853.63;;;3.62;100.00
63808;BME280;49961;43.970;22.868;2023-02-16T03:01:48;102853.63;;;3.62;100.00
63808;BME280;49961;43.970;22.868;2023-02-16T03:02:53;102864.59;;;3.62;100.00
63808;BME280;49961;43.970;22.868;2023-02-16T03:03:55;102854.13;;;3.55;100.00
63808;BME280;49961;43.970;22.868;2023-02-16T03:04:59;102856.53;;;3.57;100.00
63808;BME280;49961;43.970;22.868;2023-02-16T03:06:27;102860.88;;;3.58;100.00
63808;BME280;49961;43.970;22.868;2023-02-16T03:07:27;102855.09;;;3.59;100.00
63808;BME280;49961;43.970;22.868;2023-02-16T03:08:50;102851.06;;;3.57;100.00
63808;BME280;49961;43.970;22.868;2023-02-16T03:09:53;102851.38;;;3.55;100.00
63808;BME280;49961;43.970;22.868;2023-02-16T03:11:20;102855.78;;;3.48;100.00
63808;BME280;49961;43.970;22.868;2023-02-16T03:12:40;102851.44;;;3.47;100.00
63808;BME280;49961;43.970;22.868;2023-02-16T03:13:47;102853.72;;;3.45;100.00
63808;BME280;49961;43.970;22.868;2023-02-16T03:14:53;102855.03;;;3.39;100.00
63808;BME280;49961;43.970;22.868;2023-02-16T03:15:56;102857.59;;;3.44;100.00
63808;BME280;49961;43.970;22.868;2023-02-16T03:17:02;102850.97;;;3.45;100.00
63808;BME280;49961;43.970;22.868;2023-02-16T03:18:24;102762.59;;;2.90;100.00
63808;BME280;49961;43.970;22.868;2023-02-16T03:19:47;102718.78;;;2.52;100.00
63808;BME280;49961;43.970;22.868;2023-02-16T03:21:07;102725.47;;;2.72;100.00
63808;BME280;49961;43.970;22.868;2023-02-16T03:22:27;102851.94;;;3.49;100.00
63808;BME280;49961;43.970;22.868;2023-02-16T03:23:48;102852.25;;;3.47;100.00
63808;BME280;49961;43.970;22.868;2023-02-16T03:25:08;102828.28;;;3.36;100.00
63808;BME280;49961;43.970;22.868;2023-02-16T03:26:27;102849.25;;;3.40;100.00
63808;BME280;49961;43.970;22.868;2023-02-16T03:27:47;102848.28;;;3.36;100.00
63808;BME280;49961;43.970;22.868;2023-02-16T03:29:07;102848.63;;;3.35;100.00
63808;BME280;49961;43.970;22.868;2023-02-16T03:30:37;102857.47;;;3.32;100.00
63808;BME280;49961;43.970;22.868;2023-02-16T03:31:39;102852.00;;;3.32;100.00
63808;BME280;49961;43.970;22.868;2023-02-16T03:32:40;102854.91;;;3.35;100.00
63808;BME280;49961;43.970;22.868;2023-02-16T03:33:41;102849.44;;;3.35;100.00
63808;BME280;49961;43.970;22.868;2023-02-16T03:34:42;102832.59;;;3.16;100.00
63808;BME280;49961;43.970;22.868;2023-02-16T03:35:43;102849.44;;;3.35;100.00
63808;BME280;49961;43.970;22.868;2023-02-16T03:36:48;102849.06;;;3.37;100.00
63808;BME280;49961;43.970;22.868;2023-02-16T03:37:49;102850.34;;;3.39;100.00
63808;BME280;49961;43.970;22.868;2023-02-16T03:38:51;102848.88;;;3.42;100.00
63808;BME280;49961;43.970;22.868;2023-02-16T03:39:51;102641.19;;;2.11;100.00
63808;BME280;49961;43.970;22.868;2023-02-16T03:41:11;102848.75;;;3.38;100.00
63808;BME280;49961;43.970;22.868;2023-02-16T03:42:11;102743.97;;;2.75;100.00
63808;BME280;49961;43.970;22.868;2023-02-16T03:43:11;102844.72;;;3.36;100.00
63808;BME280;49961;43.970;22.868;2023-02-16T03:44:12;102852.63;;;3.37;100.00
63808;BME280;49961;43.970;22.868;2023-02-16T03:45:12;102846.81;;;3.39;100.00
63808;BME280;49961;43.970;22.868;2023-02-16T03:46:13;102842.94;;;3.40;100.00
63808;BME280;49961;43.970;22.868;2023-02-16T03:47:14;102842.13;;;3.39;100.00
63808;BME280;49961;43.970;22.868;2023-02-16T03:48:14;102842.25;;;3.43;100.00
63808;BME280;49961;43.970;22.868;2023-02-16T03:49:16;102843.41;;;3.42;100.00
63808;BME280;49961;43.970;22.868;2023-02-16T03:50:16;102849.03;;;3.45;100.00
63808;BME280;49961;43.970;22.868;2023-02-16T03:51:17;102811.44;;;3.25;100.00
63808;BME280;49961;43.970;22.868;2023-02-16T03:52:17;102775.59;;;3.01;100.00
63808;BME280;49961;43.970;22.868;2023-02-16T03:53:17;102828.97;;;3.33;100.00
63808;BME280;49961;43.970;22.868;2023-02-16T03:54:18;102844.03;;;3.47;100.00
63808;BME280;49961;43.970;22.868;2023-02-16T03:55:18;102854.88;;;3.44;100.00
63808;BME280;49961;43.970;22.868;2023-02-16T03:56:19;102851.31;;;3.43;100.00
63808;BME280;49961;43.970;22.868;2023-02-16T03:57:19;102853.22;;;3.43;100.00
63808;BME280;49961;43.970;22.868;2023-02-16T03:58:22;102859.06;;;3.41;100.00
63808;BME280;49961;43.970;22.868;2023-02-16T03:59:23;102829.34;;;3.23;100.00
63808;BME280;49961;43.970;22.868;2023-02-16T04:00:23;102858.13;;;3.37;100.00
63808;BME280;49961;43.970;22.868;2023-02-16T04:01:24;102830.31;;;3.18;100.00
63808;BME280;49961;43.970;22.868;2023-02-16T04:02:26;102883.59;;;3.38;100.00
63808;BME280;49961;43.970;22.868;2023-02-16T04:03:26;102861.81;;;3.41;100.00
63808;BME280;49961;43.970;22.868;2023-02-16T04:04:27;102861.81;;;3.41;100.00
63808;BME280;49961;43.970;22.868;2023-02-16T04:05:28;102787.75;;;2.92;100.00
63808;BME280;49961;43.970;22.868;2023-02-16T04:06:28;102864.53;;;3.41;100.00
63808;BME280;49961;43.970;22.868;2023-02-16T04:07:29;102844.13;;;3.30;100.00
63808;BME280;49961;43.970;22.868;2023-02-16T04:08:29;102862.78;;;3.37;100.00
63808;BME280;49961;43.970;22.868;2023-02-16T04:09:29;102863.59;;;3.37;100.00
63808;BME280;49961;43.970;22.868;2023-02-16T04:10:30;102867.16;;;3.38;100.00
63808;BME280;49961;43.970;22.868;2023-02-16T04:11:30;102862.47;;;3.38;100.00
63808;BME280;49961;43.970;22.868;2023-02-16T04:12:50;102842.22;;;3.22;100.00
63808;BME280;49961;43.970;22.868;2023-02-16T04:13:50;102862.63;;;3.33;100.00
63808;BME280;49961;43.970;22.868;2023-02-16T04:14:51;102853.94;;;3.31;100.00
63808;BME280;49961;43.970;22.868;2023-02-16T04:15:51;102853.94;;;3.31;100.00
63808;BME280;49961;43.970;22.868;2023-02-16T04:16:51;102775.38;;;2.77;100.00
63808;BME280;49961;43.970;22.868;2023-02-16T04:17:52;102854.47;;;3.25;100.00
63808;BME280;49961;43.970;22.868;2023-02-16T04:18:53;102865.41;;;3.25;100.00
63808;BME280;49961;43.970;22.868;2023-02-16T04:19:53;102791.94;;;2.81;100.00
63808;BME280;49961;43.970;22.868;2023-02-16T04:20:54;102864.97;;;3.23;100.00
63808;BME280;49961;43.970;22.868;2023-02-16T04:21:54;102868.81;;;3.22;100.00
63808;BME280;49961;43.970;22.868;2023-02-16T04:22:55;102871.09;;;3.20;100.00
63808;BME280;49961;43.970;22.868;2023-02-16T04:23:55;102846.13;;;3.13;100.00
63808;BME280;49961;43.970;22.868;2023-02-16T04:24:56;102859.97;;;3.16;100.00
63808;BME280;49961;43.970;22.868;2023-02-16T04:25:56;102866.25;;;3.17;100.00
63808;BME280;49961;43.970;22.868;2023-02-16T04:26:56;102862.41;;;3.09;100.00
63808;BME280;49961;43.970;22.868;2023-02-16T04:27:57;102868.84;;;3.13;100.00
63808;BME280;49961;43.970;22.868;2023-02-16T04:28:57;102867.56;;;3.11;100.00
63808;BME280;49961;43.970;22.868;2023-02-16T04:29:58;102869.84;;;3.09;100.00
63808;BME280;49961;43.970;22.868;2023-02-16T04:30:58;102870.16;;;3.07;100.00
63808;BME280;49961;43.970;22.868;2023-02-16T04:31:58;102850.72;;;2.92;100.00
63808;BME280;49961;43.970;22.868;2023-02-16T04:32:59;102867.47;;;2.99;100.00
63808;BME280;49961;43.970;22.868;2023-02-16T04:33:59;102846.06;;;2.84;100.00
63808;BME280;49961;43.970;22.868;2023-02-16T04:35:00;102865.03;;;2.97;100.00
63808;BME280;49961;43.970;22.868;2023-02-16T04:36:00;102860.56;;;2.93;100.00
63808;BME280;49961;43.970;22.868;2023-02-16T04:37:01;102870.38;;;2.94;100.00
63808;BME280;49961;43.970;22.868;2023-02-16T04:38:02;102864.44;;;2.92;100.00
63808;BME280;49961;43.970;22.868;2023-02-16T04:39:03;102870.22;;;2.90;100.00
63808;BME280;49961;43.970;22.868;2023-02-16T04:40:05;102791.59;;;2.36;100.00
63808;BME280;49961;43.970;22.868;2023-02-16T04:41:05;102801.41;;;2.46;100.00
63808;BME280;49961;43.970;22.868;2023-02-16T04:42:06;102847.88;;;2.71;100.00
63808;BME280;49961;43.970;22.868;2023-02-16T04:43:06;102845.00;;;2.68;100.00
63808;BME280;49961;43.970;22.868;2023-02-16T04:44:07;102881.22;;;2.82;100.00
63808;BME280;49961;43.970;22.868;2023-02-16T04:45:08;102879.44;;;2.77;100.00
63808;BME280;49961;43.970;22.868;2023-02-16T04:46:09;102868.19;;;2.70;100.00
63808;BME280;49961;43.970;22.868;2023-02-16T04:47:09;102881.03;;;2.78;100.00
63808;BME280;49961;43.970;22.868;2023-02-16T04:48:10;102871.88;;;2.74;100.00
63808;BME280;49961;43.970;22.868;2023-02-16T04:49:10;102865.59;;;2.74;100.00
63808;BME280;49961;43.970;22.868;2023-02-16T04:50:11;102842.91;;;2.56;100.00
63808;BME280;49961;43.970;22.868;2023-02-16T04:51:12;102871.88;;;2.74;100.00
63808;BME280;49961;43.970;22.868;2023-02-16T04:52:13;102870.25;;;2.73;100.00
63808;BME280;49961;43.970;22.868;2023-02-16T04:53:13;102882.84;;;2.74;100.00
63808;BME280;49961;43.970;22.868;2023-02-16T04:54:14;102880.41;;;2.73;100.00
63808;BME280;49961;43.970;22.868;2023-02-16T04:55:14;102872.50;;;2.71;100.00
63808;BME280;49961;43.970;22.868;2023-02-16T04:56:15;102867.53;;;2.65;100.00
63808;BME280;49961;43.970;22.868;2023-02-16T04:57:16;102879.91;;;2.71;100.00
63808;BME280;49961;43.970;22.868;2023-02-16T04:58:16;102878.63;;;2.68;100.00
63808;BME280;49961;43.970;22.868;2023-02-16T04:59:17;102880.59;;;2.68;100.00
63808;BME280;49961;43.970;22.868;2023-02-16T05:00:18;102867.22;;;2.58;100.00
63808;BME280;49961;43.970;22.868;2023-02-16T05:01:23;102881.06;;;2.61;100.00
63808;BME280;49961;43.970;22.868;2023-02-16T05:02:24;102770.09;;;1.92;100.00
63808;BME280;49961;43.970;22.868;2023-02-16T05:03:24;102808.19;;;2.14;100.00
63808;BME280;49961;43.970;22.868;2023-02-16T05:04:24;102880.59;;;2.59;100.00
63808;BME280;49961;43.970;22.868;2023-02-16T05:05:25;102859.19;;;2.44;100.00
63808;BME280;49961;43.970;22.868;2023-02-16T05:06:25;102883.19;;;2.56;100.00
63808;BME280;49961;43.970;22.868;2023-02-16T05:07:26;102827.66;;;2.21;100.00
63808;BME280;49961;43.970;22.868;2023-02-16T05:08:26;102881.41;;;2.51;100.00
63808;BME280;49961;43.970;22.868;2023-02-16T05:09:27;102883.16;;;2.47;100.00
63808;BME280;49961;43.970;22.868;2023-02-16T05:10:28;102879.66;;;2.47;100.00
63808;BME280;49961;43.970;22.868;2023-02-16T05:11:28;102794.34;;;1.94;100.00
63808;BME280;49961;43.970;22.868;2023-02-16T05:12:47;102882.06;;;2.48;100.00
63808;BME280;49961;43.970;22.868;2023-02-16T05:14:06;102883.66;;;2.49;100.00
63808;BME280;49961;43.970;22.868;2023-02-16T05:15:25;102885.13;;;2.47;100.00
63808;BME280;49961;43.970;22.868;2023-02-16T05:16:25;102883.50;;;2.46;100.00
63808;BME280;49961;43.970;22.868;2023-02-16T05:17:26;102891.88;;;2.49;100.00
63808;BME280;49961;43.970;22.868;2023-02-16T05:18:27;102879.31;;;2.48;100.00
63808;BME280;49961;43.970;22.868;2023-02-16T05:19:27;102884.81;;;2.48;100.00
63808;BME280;49961;43.970;22.868;2023-02-16T05:20:28;102867.75;;;2.34;100.00
63808;BME280;49961;43.970;22.868;2023-02-16T05:21:46;102878.19;;;2.49;100.00
63808;BME280;49961;43.970;22.868;2023-02-16T05:22:47;102887.84;;;2.47;100.00
63808;BME280;49961;43.970;22.868;2023-02-16T05:23:47;102885.13;;;2.47;100.00
63808;BME280;49961;43.970;22.868;2023-02-16T05:24:48;102883.84;;;2.44;100.00
63808;BME280;49961;43.970;22.868;2023-02-16T05:25:49;102883.34;;;2.42;100.00
63808;BME280;49961;43.970;22.868;2023-02-16T05:26:49;102809.81;;;1.98;100.00
63808;BME280;49961;43.970;22.868;2023-02-16T05:27:49;102890.59;;;2.47;100.00
63808;BME280;49961;43.970;22.868;2023-02-16T05:28:50;102820.28;;;2.05;100.00
63808;BME280;49961;43.970;22.868;2023-02-16T05:29:51;102887.34;;;2.45;100.00
63808;BME280;49961;43.970;22.868;2023-02-16T05:30:52;102890.09;;;2.45;100.00
63808;BME280;49961;43.970;22.868;2023-02-16T05:31:53;102895.56;;;2.45;100.00
63808;BME280;49961;43.970;22.868;2023-02-16T05:32:53;102896.38;;;2.45;100.00
63808;BME280;49961;43.970;22.868;2023-02-16T05:33:54;102894.78;;;2.44;100.00
63808;BME280;49961;43.970;22.868;2023-02-16T05:34:54;102893.50;;;2.42;100.00
63808;BME280;49961;43.970;22.868;2023-02-16T05:35:55;102897.38;;;2.41;100.00
63808;BME280;49961;43.970;22.868;2023-02-16T05:36:55;102890.75;;;2.42;100.00
63808;BME280;49961;43.970;22.868;2023-02-16T05:37:55;102891.53;;;2.42;100.00
63808;BME280;49961;43.970;22.868;2023-02-16T05:38:56;102885.28;;;2.33;100.00
63808;BME280;49961;43.970;22.868;2023-02-16T05:39:56;102893.00;;;2.40;100.00
63808;BME280;49961;43.970;22.868;2023-02-16T05:41:00;102893.34;;;2.38;100.00
63808;BME280;49961;43.970;22.868;2023-02-16T05:42:00;102899.91;;;2.37;100.00
63808;BME280;49961;43.970;22.868;2023-02-16T05:43:00;102899.13;;;2.37;100.00
63808;BME280;49961;43.970;22.868;2023-02-16T05:44:02;102901.38;;;2.35;100.00
63808;BME280;49961;43.970;22.868;2023-02-16T05:45:03;102761.34;;;1.39;100.00
63808;BME280;49961;43.970;22.868;2023-02-16T05:46:08;102905.91;;;2.31;100.00
63808;BME280;49961;43.970;22.868;2023-02-16T05:47:08;102901.38;;;2.35;100.00
63808;BME280;49961;43.970;22.868;2023-02-16T05:48:09;102876.44;;;2.19;100.00
63808;BME280;49961;43.970;22.868;2023-02-16T05:49:09;102871.94;;;2.23;100.00
63808;BME280;49961;43.970;22.868;2023-02-16T05:50:10;102903.00;;;2.44;100.00
63808;BME280;49961;43.970;22.868;2023-02-16T05:51:11;102904.59;;;2.45;100.00
63808;BME280;49961;43.970;22.868;2023-02-16T05:52:12;102727.13;;;1.33;100.00
63808;BME280;49961;43.970;22.868;2023-02-16T05:53:12;102913.28;;;2.47;100.00
63808;BME280;49961;43.970;22.868;2023-02-16T05:54:13;102908.63;;;2.48;100.00
63808;BME280;49961;43.970;22.868;2023-02-16T05:55:16;102880.13;;;2.23;100.00
63808;BME280;49961;43.970;22.868;2023-02-16T05:56:18;102880.94;;;2.24;100.00
63808;BME280;49961;43.970;22.868;2023-02-16T05:57:18;102911.34;;;2.48;100.00